createdAt,value
2018-11-04T00:00:38.782Z,4.37
2018-11-04T00:01:38.788Z,4.42
2018-11-04T00:02:38.764Z,4.40
2018-11-04T00:03:38.754Z,4.44
2018-11-04T00:04:38.741Z,4.56
2018-11-04T00:05:38.737Z,4.67
2018-11-04T00:06:38.734Z,4.60
2018-11-04T00:07:38.726Z,4.62
2018-11-04T00:08:38.707Z,4.63
2018-11-04T00:09:38.715Z,4.56
2018-11-04T00:10:38.694Z,4.59
2018-11-04T00:11:38.691Z,4.63
2018-11-04T00:12:38.674Z,4.68
2018-11-04T00:13:38.668Z,4.68
2018-11-04T00:14:38.658Z,4.62
2018-11-04T00:15:38.655Z,4.63
2018-11-04T00:16:38.641Z,4.62
2018-11-04T00:17:38.633Z,4.56
2018-11-04T00:18:38.620Z,4.62
2018-11-04T00:19:38.618Z,4.66
2018-11-04T00:20:38.608Z,4.66
2018-11-04T00:21:38.603Z,4.70
2018-11-04T00:22:38.595Z,4.63
2018-11-04T00:23:38.581Z,4.68
2018-11-04T00:24:38.569Z,4.63
2018-11-04T00:25:38.561Z,4.68
2018-11-04T00:26:38.557Z,4.66
2018-11-04T00:27:38.547Z,4.66
2018-11-04T00:28:38.536Z,4.62
2018-11-04T00:29:38.538Z,4.60
2018-11-04T00:30:38.522Z,4.60
2018-11-04T00:31:38.507Z,4.89
2018-11-04T00:32:38.505Z,4.90
2018-11-04T00:33:38.488Z,5.10
2018-11-04T00:34:38.490Z,5.17
2018-11-04T00:35:38.506Z,5.14
2018-11-04T00:36:38.467Z,5.20
2018-11-04T00:37:38.460Z,5.18
2018-11-04T00:38:38.446Z,5.23
2018-11-04T00:39:38.440Z,5.17
2018-11-04T00:40:38.435Z,5.26
2018-11-04T00:41:38.423Z,5.23
2018-11-04T00:42:38.425Z,5.25
2018-11-04T00:43:38.409Z,5.25
2018-11-04T00:44:38.400Z,5.21
2018-11-04T00:45:38.458Z,5.20
2018-11-04T00:46:38.379Z,5.26
2018-11-04T00:47:38.377Z,5.30
2018-11-04T00:48:38.362Z,5.14
2018-11-04T00:49:38.353Z,5.18
2018-11-04T00:50:38.354Z,5.18
2018-11-04T00:51:38.330Z,5.23
2018-11-04T00:52:38.322Z,5.18
2018-11-04T00:53:38.318Z,5.21
2018-11-04T00:54:38.314Z,5.17
2018-11-04T00:55:39.026Z,5.15
2018-11-04T00:56:38.292Z,5.14
2018-11-04T00:57:38.288Z,5.11
2018-11-04T00:58:38.275Z,5.15
2018-11-04T00:59:38.265Z,5.11
2018-11-04T01:00:38.261Z,5.10
2018-11-04T01:01:38.317Z,5.15
2018-11-04T01:02:38.242Z,5.11
2018-11-04T01:03:38.230Z,5.10
2018-11-04T01:04:38.218Z,5.15
2018-11-04T01:05:38.213Z,5.20
2018-11-04T01:06:38.240Z,5.25
2018-11-04T01:07:38.197Z,5.28
2018-11-04T01:08:38.186Z,5.29
2018-11-04T01:09:38.176Z,5.23
2018-11-04T01:10:38.171Z,5.18
2018-11-04T01:11:38.160Z,5.25
2018-11-04T01:12:38.150Z,5.28
2018-11-04T01:13:38.144Z,5.21
2018-11-04T01:14:38.129Z,5.18
2018-11-04T01:15:38.126Z,5.23
2018-11-04T01:16:38.118Z,5.30
2018-11-04T01:17:38.108Z,5.29
2018-11-04T01:18:38.102Z,5.28
2018-11-04T01:19:38.090Z,5.23
2018-11-04T01:20:38.083Z,5.38
2018-11-04T01:21:38.069Z,5.43
2018-11-04T01:22:38.065Z,5.36
2018-11-04T01:23:38.055Z,5.39
2018-11-04T01:24:38.081Z,5.38
2018-11-04T01:25:38.041Z,5.39
2018-11-04T01:26:38.030Z,5.36
2018-11-04T01:27:38.020Z,5.38
2018-11-04T01:28:38.010Z,5.43
2018-11-04T01:29:38.003Z,5.36
2018-11-04T01:30:37.994Z,5.43
2018-11-04T01:31:37.986Z,5.41
2018-11-04T01:32:37.976Z,5.48
2018-11-04T01:33:37.965Z,5.57
2018-11-04T01:34:37.959Z,5.54
2018-11-04T01:35:37.952Z,5.57
2018-11-04T01:36:37.941Z,5.53
2018-11-04T01:37:37.937Z,5.62
2018-11-04T01:38:37.925Z,5.64
2018-11-04T01:39:37.916Z,5.59
2018-11-04T01:40:37.906Z,5.59
2018-11-04T01:41:37.899Z,5.59
2018-11-04T01:42:37.895Z,5.65
2018-11-04T01:43:37.883Z,5.68
2018-11-04T01:44:37.873Z,5.75
2018-11-04T01:45:37.867Z,5.79
2018-11-04T01:46:37.857Z,5.76
2018-11-04T01:47:37.859Z,5.75
2018-11-04T01:48:37.839Z,5.73
2018-11-04T01:49:37.832Z,5.61
2018-11-04T01:50:37.820Z,5.75
2018-11-04T01:51:37.813Z,5.72
2018-11-04T01:52:37.806Z,5.75
2018-11-04T01:53:37.795Z,5.73
2018-11-04T01:54:37.787Z,5.75
2018-11-04T01:55:37.782Z,5.83
2018-11-04T01:56:37.772Z,5.82
2018-11-04T01:57:37.762Z,5.79
2018-11-04T01:58:37.754Z,5.82
2018-11-04T01:59:38.536Z,5.79
2018-11-04T02:00:37.737Z,5.83
2018-11-04T02:01:37.731Z,5.76
2018-11-04T02:02:37.721Z,5.89
2018-11-04T02:03:37.715Z,5.90
2018-11-04T02:04:37.700Z,5.91
2018-11-04T02:05:37.697Z,5.98
2018-11-04T02:06:37.686Z,5.97
2018-11-04T02:07:37.677Z,5.91
2018-11-04T02:08:37.668Z,6.02
2018-11-04T02:09:37.660Z,6.01
2018-11-04T02:10:37.655Z,6.04
2018-11-04T02:11:37.642Z,5.97
2018-11-04T02:12:37.637Z,6.09
2018-11-04T02:13:37.627Z,6.11
2018-11-04T02:14:37.620Z,6.07
2018-11-04T02:15:37.613Z,6.16
2018-11-04T02:16:37.601Z,6.12
2018-11-04T02:17:37.596Z,6.02
2018-11-04T02:18:37.584Z,6.05
2018-11-04T02:19:37.579Z,6.09
2018-11-04T02:20:37.569Z,6.11
2018-11-04T02:21:37.563Z,6.12
2018-11-04T02:22:37.567Z,6.16
2018-11-04T02:23:37.545Z,6.24
2018-11-04T02:24:37.538Z,6.27
2018-11-04T02:25:37.528Z,6.27
2018-11-04T02:26:37.520Z,6.27
2018-11-04T02:27:37.510Z,6.27
2018-11-04T02:28:37.501Z,6.24
2018-11-04T02:29:37.494Z,6.27
2018-11-04T02:30:38.125Z,6.22
2018-11-04T02:31:37.478Z,6.20
2018-11-04T02:32:37.469Z,6.26
2018-11-04T02:33:37.466Z,6.22
2018-11-04T02:34:37.452Z,6.36
2018-11-04T02:35:37.445Z,6.31
2018-11-04T02:36:37.436Z,6.27
2018-11-04T02:37:37.431Z,6.33
2018-11-04T02:38:37.440Z,6.33
2018-11-04T02:39:38.121Z,6.33
2018-11-04T02:40:37.407Z,6.33
2018-11-04T02:41:37.398Z,6.45
2018-11-04T02:42:37.390Z,6.45
2018-11-04T02:43:37.382Z,6.44
2018-11-04T02:44:37.373Z,6.39
2018-11-04T02:45:37.366Z,6.38
2018-11-04T02:46:37.357Z,6.44
2018-11-04T02:47:37.352Z,6.48
2018-11-04T02:48:37.341Z,6.49
2018-11-04T02:49:37.335Z,6.48
2018-11-04T02:50:37.335Z,6.54
2018-11-04T02:51:37.322Z,6.49
2018-11-04T02:52:37.312Z,6.51
2018-11-04T02:53:37.303Z,6.56
2018-11-04T02:54:37.312Z,6.63
2018-11-04T02:55:37.286Z,6.60
2018-11-04T02:56:37.276Z,6.60
2018-11-04T02:57:37.271Z,6.59
2018-11-04T02:58:37.269Z,6.64
2018-11-04T02:59:37.257Z,6.63
2018-11-04T03:00:37.247Z,6.75
2018-11-04T03:01:37.239Z,6.64
2018-11-04T03:02:37.231Z,6.70
2018-11-04T03:03:37.224Z,6.66
2018-11-04T03:04:37.216Z,6.70
2018-11-04T03:05:37.207Z,6.72
2018-11-04T03:06:37.201Z,6.69
2018-11-04T03:07:37.194Z,6.66
2018-11-04T03:08:37.186Z,6.77
2018-11-04T03:09:37.177Z,6.77
2018-11-04T03:10:37.170Z,6.84
2018-11-04T03:11:37.165Z,6.74
2018-11-04T03:12:37.157Z,6.92
2018-11-04T03:13:37.145Z,6.81
2018-11-04T03:14:37.137Z,6.88
2018-11-04T03:15:37.133Z,6.87
2018-11-04T03:16:37.122Z,6.89
2018-11-04T03:17:37.114Z,6.95
2018-11-04T03:18:37.106Z,6.88
2018-11-04T03:19:37.099Z,6.95
2018-11-04T03:20:37.097Z,6.96
2018-11-04T03:21:37.081Z,6.96
2018-11-04T03:22:37.080Z,7.05
2018-11-04T03:23:37.070Z,7.03
2018-11-04T03:24:37.128Z,7.06
2018-11-04T03:25:37.060Z,7.06
2018-11-04T03:26:37.044Z,7.11
2018-11-04T03:27:37.034Z,7.06
2018-11-04T03:28:37.047Z,7.02
2018-11-04T03:29:37.020Z,7.10
2018-11-04T03:30:37.012Z,7.02
2018-11-04T03:31:37.007Z,7.07
2018-11-04T03:32:36.998Z,7.11
2018-11-04T03:33:36.992Z,7.14
2018-11-04T03:34:36.983Z,7.21
2018-11-04T03:35:36.973Z,7.21
2018-11-04T03:36:36.961Z,7.18
2018-11-04T03:37:36.960Z,7.21
2018-11-04T03:38:36.950Z,7.31
2018-11-04T03:39:36.953Z,7.25
2018-11-04T03:40:36.943Z,7.24
2018-11-04T03:41:36.929Z,7.32
2018-11-04T03:42:36.925Z,7.28
2018-11-04T03:43:36.914Z,7.31
2018-11-04T03:44:36.909Z,7.25
2018-11-04T03:45:36.901Z,7.32
2018-11-04T03:46:36.891Z,7.31
2018-11-04T03:47:36.883Z,7.32
2018-11-04T03:48:36.875Z,7.31
2018-11-04T03:49:36.867Z,7.35
2018-11-04T03:50:36.860Z,7.38
2018-11-04T03:51:36.853Z,7.40
2018-11-04T03:52:36.843Z,7.40
2018-11-04T03:53:36.838Z,7.45
2018-11-04T03:54:36.829Z,7.43
2018-11-04T03:55:36.824Z,7.36
2018-11-04T03:56:36.813Z,7.45
2018-11-04T03:57:36.805Z,7.42
2018-11-04T03:58:36.804Z,7.54
2018-11-04T03:59:36.790Z,7.51
2018-11-04T04:00:36.782Z,7.58
2018-11-04T04:01:36.779Z,7.69
2018-11-04T04:02:36.772Z,7.58
2018-11-04T04:03:37.566Z,7.63
2018-11-04T04:04:36.753Z,7.69
2018-11-04T04:05:36.745Z,7.63
2018-11-04T04:06:36.740Z,7.70
2018-11-04T04:07:36.727Z,7.85
2018-11-04T04:08:36.722Z,7.87
2018-11-04T04:09:36.714Z,7.98
2018-11-04T04:10:36.711Z,8.05
2018-11-04T04:11:36.705Z,8.03
2018-11-04T04:12:36.695Z,8.06
2018-11-04T04:13:36.681Z,8.09
2018-11-04T04:14:36.679Z,8.19
2018-11-04T04:15:36.669Z,8.19
2018-11-04T04:16:36.660Z,8.19
2018-11-04T04:17:36.655Z,8.19
2018-11-04T04:18:36.646Z,8.20
2018-11-04T04:19:36.640Z,8.23
2018-11-04T04:20:36.629Z,8.27
2018-11-04T04:21:36.632Z,8.15
2018-11-04T04:22:36.620Z,8.15
2018-11-04T04:23:36.607Z,8.20
2018-11-04T04:24:36.596Z,8.18
2018-11-04T04:25:36.590Z,8.30
2018-11-04T04:26:36.584Z,8.26
2018-11-04T04:27:36.579Z,8.26
2018-11-04T04:28:36.568Z,8.19
2018-11-04T04:29:36.569Z,8.30
2018-11-04T04:30:36.556Z,8.27
2018-11-04T04:31:36.547Z,8.23
2018-11-04T04:32:36.550Z,8.27
2018-11-04T04:33:36.532Z,8.28
2018-11-04T04:34:36.527Z,8.27
2018-11-04T04:35:36.517Z,8.37
2018-11-04T04:36:36.516Z,8.28
2018-11-04T04:37:36.505Z,8.36
2018-11-04T04:38:36.494Z,8.36
2018-11-04T04:39:36.490Z,8.27
2018-11-04T04:40:36.500Z,8.33
2018-11-04T04:41:36.479Z,8.27
2018-11-04T04:42:36.465Z,8.37
2018-11-04T04:43:36.460Z,8.30
2018-11-04T04:44:36.453Z,8.37
2018-11-04T04:45:36.443Z,8.36
2018-11-04T04:46:36.438Z,8.33
2018-11-04T04:47:36.431Z,8.44
2018-11-04T04:48:36.423Z,8.45
2018-11-04T04:49:36.418Z,8.45
2018-11-04T04:50:36.406Z,8.45
2018-11-04T04:51:36.441Z,8.41
2018-11-04T04:52:36.391Z,8.41
2018-11-04T04:53:36.450Z,8.42
2018-11-04T04:54:36.377Z,8.41
2018-11-04T04:55:36.371Z,8.45
2018-11-04T04:56:36.362Z,8.51
2018-11-04T04:57:36.356Z,8.49
2018-11-04T04:58:36.348Z,8.56
2018-11-04T04:59:36.345Z,8.53
2018-11-04T05:00:36.333Z,8.49
2018-11-04T05:01:36.324Z,8.51
2018-11-04T05:02:36.319Z,8.44
2018-11-04T05:03:36.314Z,8.56
2018-11-04T05:04:36.304Z,8.45
2018-11-04T05:05:36.303Z,8.51
2018-11-04T05:06:36.293Z,8.49
2018-11-04T05:07:36.283Z,8.51
2018-11-04T05:08:36.274Z,8.51
2018-11-04T05:09:36.269Z,8.55
2018-11-04T05:10:36.263Z,8.58
2018-11-04T05:11:36.254Z,8.52
2018-11-04T05:12:36.250Z,8.73
2018-11-04T05:13:36.244Z,8.69
2018-11-04T05:14:36.232Z,8.70
2018-11-04T05:15:36.226Z,8.63
2018-11-04T05:16:36.274Z,8.60
2018-11-04T05:17:36.211Z,8.71
2018-11-04T05:18:36.204Z,8.67
2018-11-04T05:19:36.199Z,8.76
2018-11-04T05:20:36.191Z,8.74
2018-11-04T05:21:36.182Z,8.81
2018-11-04T05:22:36.177Z,8.78
2018-11-04T05:23:36.167Z,8.78
2018-11-04T05:24:36.162Z,8.78
2018-11-04T05:25:36.155Z,8.87
2018-11-04T05:26:36.149Z,8.79
2018-11-04T05:27:36.147Z,8.87
2018-11-04T05:28:36.132Z,8.85
2018-11-04T05:29:36.127Z,8.84
2018-11-04T05:30:36.120Z,8.91
2018-11-04T05:31:36.113Z,8.82
2018-11-04T05:32:36.105Z,8.87
2018-11-04T05:33:36.097Z,8.87
2018-11-04T05:34:36.087Z,8.85
2018-11-04T05:35:36.081Z,8.87
2018-11-04T05:36:36.076Z,8.94
2018-11-04T05:37:36.068Z,8.87
2018-11-04T05:38:36.062Z,8.91
2018-11-04T05:39:36.055Z,8.97
2018-11-04T05:40:36.044Z,8.94
2018-11-04T05:41:36.042Z,8.91
2018-11-04T05:42:36.036Z,8.94
2018-11-04T05:43:36.029Z,8.94
2018-11-04T05:44:36.020Z,8.88
2018-11-04T05:45:36.014Z,8.94
2018-11-04T05:46:36.005Z,8.91
2018-11-04T05:47:35.999Z,9.00
2018-11-04T05:48:35.991Z,8.91
2018-11-04T05:49:35.985Z,8.88
2018-11-04T05:50:35.979Z,9.03
2018-11-04T05:51:35.971Z,8.99
2018-11-04T05:52:35.969Z,9.02
2018-11-04T05:53:35.953Z,9.03
2018-11-04T05:54:35.952Z,8.91
2018-11-04T05:55:35.942Z,8.95
2018-11-04T05:56:35.946Z,9.02
2018-11-04T05:57:35.926Z,8.91
2018-11-04T05:58:35.922Z,9.00
2018-11-04T05:59:35.914Z,9.00
2018-11-04T06:00:35.908Z,9.00
2018-11-04T06:01:35.900Z,8.97
2018-11-04T06:02:35.891Z,9.04
2018-11-04T06:03:35.888Z,9.02
2018-11-04T06:04:35.876Z,9.02
2018-11-04T06:05:35.872Z,8.95
2018-11-04T06:06:35.864Z,9.00
2018-11-04T06:07:35.859Z,9.06
2018-11-04T06:08:35.851Z,8.95
2018-11-04T06:09:35.844Z,8.99
2018-11-04T06:10:35.840Z,9.08
2018-11-04T06:11:35.835Z,9.10
2018-11-04T06:12:35.821Z,9.10
2018-11-04T06:13:35.816Z,9.03
2018-11-04T06:14:35.824Z,9.10
2018-11-04T06:15:35.802Z,8.95
2018-11-04T06:16:35.796Z,9.02
2018-11-04T06:17:35.791Z,9.11
2018-11-04T06:18:35.781Z,8.95
2018-11-04T06:19:35.817Z,9.02
2018-11-04T06:20:35.767Z,9.00
2018-11-04T06:21:35.761Z,9.03
2018-11-04T06:22:35.753Z,8.99
2018-11-04T06:23:35.751Z,9.03
2018-11-04T06:24:35.738Z,9.00
2018-11-04T06:25:35.732Z,9.14
2018-11-04T06:26:35.729Z,9.16
2018-11-04T06:27:35.718Z,9.11
2018-11-04T06:28:35.713Z,9.14
2018-11-04T06:29:35.703Z,9.06
2018-11-04T06:30:35.700Z,9.10
2018-11-04T06:31:35.690Z,9.11
2018-11-04T06:32:35.682Z,9.08
2018-11-04T06:33:35.676Z,9.08
2018-11-04T06:34:35.715Z,9.11
2018-11-04T06:35:35.665Z,9.11
2018-11-04T06:36:35.653Z,9.06
2018-11-04T06:37:35.648Z,9.11
2018-11-04T06:38:35.643Z,9.13
2018-11-04T06:39:35.633Z,9.25
2018-11-04T06:40:35.625Z,9.21
2018-11-04T06:41:35.627Z,9.23
2018-11-04T06:42:35.612Z,9.21
2018-11-04T06:43:35.606Z,9.21
2018-11-04T06:44:35.598Z,9.19
2018-11-04T06:45:35.591Z,9.22
2018-11-04T06:46:35.582Z,9.23
2018-11-04T06:47:35.677Z,9.19
2018-11-04T06:48:35.572Z,9.22
2018-11-04T06:49:35.564Z,9.23
2018-11-04T06:50:35.558Z,9.26
2018-11-04T06:51:35.560Z,9.26
2018-11-04T06:52:35.544Z,9.28
2018-11-04T06:53:35.534Z,9.29
2018-11-04T06:54:35.530Z,9.21
2018-11-04T06:55:35.523Z,9.32
2018-11-04T06:56:35.514Z,9.25
2018-11-04T06:57:35.510Z,9.31
2018-11-04T06:58:35.502Z,9.25
2018-11-04T06:59:35.492Z,9.37
2018-11-04T07:00:35.486Z,9.31
2018-11-04T07:01:35.480Z,9.31
2018-11-04T07:02:35.479Z,9.31
2018-11-04T07:03:35.467Z,9.32
2018-11-04T07:04:36.176Z,9.21
2018-11-04T07:05:35.452Z,9.32
2018-11-04T07:06:35.446Z,9.37
2018-11-04T07:07:35.442Z,9.40
2018-11-04T07:08:35.435Z,9.40
2018-11-04T07:09:35.428Z,9.39
2018-11-04T07:10:35.419Z,9.36
2018-11-04T07:11:35.411Z,9.34
2018-11-04T07:12:35.405Z,9.39
2018-11-04T07:13:35.398Z,9.31
2018-11-04T07:14:35.391Z,9.39
2018-11-04T07:15:35.384Z,9.39
2018-11-04T07:16:35.376Z,9.39
2018-11-04T07:17:35.368Z,9.36
2018-11-04T07:18:35.366Z,9.43
2018-11-04T07:19:35.357Z,9.44
2018-11-04T07:20:35.350Z,9.44
2018-11-04T07:21:35.342Z,9.47
2018-11-04T07:22:35.338Z,9.50
2018-11-04T07:23:35.329Z,9.44
2018-11-04T07:24:35.323Z,9.43
2018-11-04T07:25:35.323Z,9.56
2018-11-04T07:26:35.309Z,9.44
2018-11-04T07:27:35.303Z,9.43
2018-11-04T07:28:35.294Z,9.47
2018-11-04T07:29:35.288Z,9.48
2018-11-04T07:30:35.284Z,9.41
2018-11-04T07:31:35.277Z,9.59
2018-11-04T07:32:35.270Z,9.46
2018-11-04T07:33:35.261Z,9.55
2018-11-04T07:34:35.255Z,9.56
2018-11-04T07:35:35.251Z,9.58
2018-11-04T07:36:35.243Z,9.59
2018-11-04T07:37:35.235Z,9.58
2018-11-04T07:38:35.227Z,9.59
2018-11-04T07:39:35.223Z,9.59
2018-11-04T07:40:35.213Z,9.59
2018-11-04T07:41:35.230Z,9.61
2018-11-04T07:42:35.197Z,9.66
2018-11-04T07:43:35.201Z,9.69
2018-11-04T07:44:35.190Z,9.66
2018-11-04T07:45:35.183Z,9.76
2018-11-04T07:46:35.174Z,9.73
2018-11-04T07:47:36.111Z,9.76
2018-11-04T07:48:35.159Z,9.76
2018-11-04T07:49:35.156Z,9.74
2018-11-04T07:50:35.229Z,9.64
2018-11-04T07:51:35.221Z,9.66
2018-11-04T07:52:35.136Z,9.72
2018-11-04T07:53:35.133Z,9.76
2018-11-04T07:54:35.122Z,9.77
2018-11-04T07:55:35.117Z,9.72
2018-11-04T07:56:35.108Z,9.76
2018-11-04T07:57:35.104Z,9.76
2018-11-04T07:58:35.096Z,9.83
2018-11-04T07:59:35.090Z,9.80
2018-11-04T08:00:35.083Z,9.80
2018-11-04T08:01:35.077Z,9.84
2018-11-04T08:02:35.069Z,9.87
2018-11-04T08:03:35.123Z,9.87
2018-11-04T08:04:35.056Z,9.86
2018-11-04T08:05:35.051Z,9.82
2018-11-04T08:06:35.057Z,9.86
2018-11-04T08:07:35.039Z,9.84
2018-11-04T08:08:35.029Z,9.89
2018-11-04T08:09:35.026Z,9.97
2018-11-04T08:10:35.017Z,9.86
2018-11-04T08:11:35.012Z,9.82
2018-11-04T08:12:35.004Z,9.89
2018-11-04T08:13:35.095Z,9.87
2018-11-04T08:14:34.987Z,9.92
2018-11-04T08:15:34.986Z,9.95
2018-11-04T08:16:34.977Z,9.95
2018-11-04T08:17:34.972Z,9.87
2018-11-04T08:18:34.966Z,9.94
2018-11-04T08:19:34.960Z,9.87
2018-11-04T08:20:34.951Z,9.92
2018-11-04T08:21:34.947Z,10.01
2018-11-04T08:22:34.938Z,10.01
2018-11-04T08:23:34.932Z,9.95
2018-11-04T08:24:34.924Z,9.98
2018-11-04T08:25:34.920Z,10.02
2018-11-04T08:26:34.914Z,9.97
2018-11-04T08:27:34.910Z,10.01
2018-11-04T08:28:34.901Z,9.98
2018-11-04T08:29:34.893Z,10.10
2018-11-04T08:30:34.891Z,10.05
2018-11-04T08:31:34.881Z,10.05
2018-11-04T08:32:34.892Z,10.10
2018-11-04T08:33:34.868Z,10.01
2018-11-04T08:34:34.863Z,10.07
2018-11-04T08:35:34.856Z,10.07
2018-11-04T08:36:35.698Z,10.09
2018-11-04T08:37:34.844Z,10.07
2018-11-04T08:38:34.835Z,10.10
2018-11-04T08:39:34.867Z,10.15
2018-11-04T08:40:34.825Z,10.09
2018-11-04T08:41:34.822Z,10.15
2018-11-04T08:42:34.814Z,10.20
2018-11-04T08:43:34.807Z,10.23
2018-11-04T08:44:35.698Z,10.17
2018-11-04T08:45:34.810Z,10.22
2018-11-04T08:46:34.788Z,10.25
2018-11-04T08:47:34.782Z,10.15
2018-11-04T08:48:34.773Z,10.15
2018-11-04T08:49:34.771Z,10.22
2018-11-04T08:50:34.768Z,10.28
2018-11-04T08:51:34.751Z,10.17
2018-11-04T08:52:34.828Z,10.16
2018-11-04T08:53:34.744Z,10.26
2018-11-04T08:54:34.739Z,10.25
2018-11-04T08:55:34.728Z,10.28
2018-11-04T08:56:34.767Z,10.26
2018-11-04T08:57:34.719Z,10.28
2018-11-04T08:58:34.718Z,10.26
2018-11-04T08:59:34.707Z,10.30
2018-11-04T09:00:34.705Z,10.33
2018-11-04T09:01:34.693Z,10.25
2018-11-04T09:02:34.689Z,10.33
2018-11-04T09:03:34.682Z,10.33
2018-11-04T09:04:34.674Z,10.25
2018-11-04T09:05:34.672Z,10.25
2018-11-04T09:06:34.740Z,10.30
2018-11-04T09:07:34.660Z,10.30
2018-11-04T09:08:34.654Z,10.33
2018-11-04T09:09:34.645Z,10.38
2018-11-04T09:10:34.637Z,10.31
2018-11-04T09:11:34.631Z,10.40
2018-11-04T09:12:34.624Z,10.46
2018-11-04T09:13:34.620Z,10.46
2018-11-04T09:14:34.614Z,10.51
2018-11-04T09:15:34.606Z,10.48
2018-11-04T09:16:34.598Z,10.59
2018-11-04T09:17:34.594Z,10.57
2018-11-04T09:18:34.590Z,10.54
2018-11-04T09:19:34.650Z,10.54
2018-11-04T09:20:34.646Z,10.49
2018-11-04T09:21:34.688Z,10.59
2018-11-04T09:22:34.607Z,10.54
2018-11-04T09:23:34.631Z,10.60
2018-11-04T09:24:34.556Z,10.56
2018-11-04T09:25:34.547Z,10.56
2018-11-04T09:26:34.538Z,10.59
2018-11-04T09:27:34.538Z,10.51
2018-11-04T09:28:34.529Z,10.61
2018-11-04T09:29:34.521Z,10.63
2018-11-04T09:30:34.516Z,10.51
2018-11-04T09:31:34.511Z,10.61
2018-11-04T09:32:34.506Z,10.60
2018-11-04T09:33:34.496Z,10.63
2018-11-04T09:34:34.543Z,10.67
2018-11-04T09:35:34.659Z,10.67
2018-11-04T09:36:34.629Z,10.67
2018-11-04T09:37:34.473Z,10.60
2018-11-04T09:38:34.468Z,10.59
2018-11-04T09:39:34.458Z,10.64
2018-11-04T09:40:34.481Z,10.60
2018-11-04T09:41:34.451Z,10.63
2018-11-04T09:42:34.444Z,10.69
2018-11-04T09:43:34.435Z,10.63
2018-11-04T09:44:34.432Z,10.63
2018-11-04T09:45:34.429Z,10.72
2018-11-04T09:46:34.421Z,10.78
2018-11-04T09:47:34.414Z,10.90
2018-11-04T09:48:34.415Z,10.86
2018-11-04T09:49:34.403Z,10.78
2018-11-04T09:50:34.399Z,10.76
2018-11-04T09:51:34.390Z,10.86
2018-11-04T09:52:34.386Z,10.90
2018-11-04T09:53:34.378Z,10.79
2018-11-04T09:54:34.372Z,10.89
2018-11-04T09:55:34.371Z,10.89
2018-11-04T09:56:34.445Z,10.96
2018-11-04T09:57:34.355Z,10.92
2018-11-04T09:58:34.352Z,10.94
2018-11-04T09:59:34.344Z,10.92
2018-11-04T10:00:34.338Z,10.97
2018-11-04T10:01:34.333Z,10.92
2018-11-04T10:02:34.330Z,10.92
2018-11-04T10:03:34.322Z,10.89
2018-11-04T10:04:34.317Z,10.89
2018-11-04T10:05:34.310Z,10.89
2018-11-04T10:06:34.303Z,10.96
2018-11-04T10:07:34.299Z,10.93
2018-11-04T10:08:34.290Z,10.94
2018-11-04T10:09:34.287Z,10.86
2018-11-04T10:10:34.282Z,10.92
2018-11-04T10:11:34.277Z,10.94
2018-11-04T10:12:34.270Z,10.99
2018-11-04T10:13:34.271Z,10.97
2018-11-04T10:14:34.259Z,10.94
2018-11-04T10:15:34.258Z,10.94
2018-11-04T10:16:34.247Z,10.96
2018-11-04T10:17:34.242Z,10.96
2018-11-04T10:18:34.240Z,10.92
2018-11-04T10:19:34.409Z,10.89
2018-11-04T10:20:34.540Z,10.93
2018-11-04T10:21:34.223Z,10.93
2018-11-04T10:22:34.215Z,10.93
2018-11-04T10:23:34.208Z,11.05
2018-11-04T10:24:34.203Z,11.05
2018-11-04T10:25:34.197Z,11.11
2018-11-04T10:26:34.194Z,11.08
2018-11-04T10:27:34.187Z,11.12
2018-11-04T10:28:34.179Z,11.18
2018-11-04T10:29:34.176Z,11.05
2018-11-04T10:30:34.175Z,11.18
2018-11-04T10:31:34.168Z,11.17
2018-11-04T10:32:34.158Z,11.19
2018-11-04T10:33:34.154Z,11.26
2018-11-04T10:34:34.147Z,11.18
2018-11-04T10:35:34.141Z,11.18
2018-11-04T10:36:34.135Z,11.22
2018-11-04T10:37:34.131Z,11.19
2018-11-04T10:38:34.126Z,11.26
2018-11-04T10:39:34.119Z,11.17
2018-11-04T10:40:34.113Z,11.32
2018-11-04T10:41:34.108Z,11.25
2018-11-04T10:42:34.102Z,11.22
2018-11-04T10:43:34.098Z,11.22
2018-11-04T10:44:34.094Z,11.35
2018-11-04T10:45:34.091Z,11.33
2018-11-04T10:46:34.083Z,11.45
2018-11-04T10:47:34.076Z,11.40
2018-11-04T10:48:34.069Z,11.26
2018-11-04T10:49:34.113Z,11.26
2018-11-04T10:50:34.066Z,11.40
2018-11-04T10:51:34.123Z,11.41
2018-11-04T10:52:34.053Z,11.47
2018-11-04T10:53:34.043Z,11.44
2018-11-04T10:54:34.041Z,11.45
2018-11-04T10:55:34.049Z,11.51
2018-11-04T10:56:34.029Z,11.50
2018-11-04T10:57:34.023Z,11.44
2018-11-04T10:58:34.019Z,11.44
2018-11-04T10:59:34.017Z,11.52
2018-11-04T11:00:34.007Z,11.54
2018-11-04T11:01:34.003Z,11.48
2018-11-04T11:02:33.997Z,11.55
2018-11-04T11:03:33.994Z,11.55
2018-11-04T11:04:34.085Z,11.62
2018-11-04T11:05:33.982Z,11.62
2018-11-04T11:06:33.975Z,11.54
2018-11-04T11:07:33.977Z,11.57
2018-11-04T11:08:33.967Z,11.47
2018-11-04T11:09:33.984Z,11.44
2018-11-04T11:10:33.955Z,11.59
2018-11-04T11:11:33.949Z,11.55
2018-11-04T11:12:33.944Z,11.55
2018-11-04T11:13:33.936Z,11.59
2018-11-04T11:14:33.932Z,11.60
2018-11-04T11:15:33.940Z,11.59
2018-11-04T11:16:33.921Z,11.70
2018-11-04T11:17:33.916Z,11.72
2018-11-04T11:18:33.912Z,11.83
2018-11-04T11:19:33.907Z,11.78
2018-11-04T11:20:33.901Z,11.73
2018-11-04T11:21:33.897Z,11.68
2018-11-04T11:22:33.967Z,11.62
2018-11-04T11:23:33.885Z,11.62
2018-11-04T11:24:33.896Z,11.57
2018-11-04T11:25:33.877Z,11.52
2018-11-04T11:26:33.870Z,11.55
2018-11-04T11:27:33.865Z,11.55
2018-11-04T11:28:33.879Z,11.54
2018-11-04T11:29:33.855Z,11.59
2018-11-04T11:30:33.851Z,11.51
2018-11-04T11:31:33.846Z,11.55
2018-11-04T11:32:33.837Z,11.57
2018-11-04T11:33:33.832Z,11.52
2018-11-04T11:34:33.831Z,11.52
2018-11-04T11:35:33.825Z,11.57
2018-11-04T11:36:33.819Z,11.52
2018-11-04T11:37:33.898Z,11.51
2018-11-04T11:38:33.810Z,11.63
2018-11-04T11:39:33.804Z,11.54
2018-11-04T11:40:33.843Z,11.63
2018-11-04T11:41:33.790Z,11.51
2018-11-04T11:42:33.790Z,11.60
2018-11-04T11:43:33.783Z,11.55
2018-11-04T11:44:33.803Z,11.63
2018-11-04T11:45:33.773Z,11.66
2018-11-04T11:46:33.799Z,11.59
2018-11-04T11:47:33.762Z,11.60
2018-11-04T11:48:33.755Z,11.65
2018-11-04T11:49:33.749Z,11.55
2018-11-04T11:50:33.746Z,11.48
2018-11-04T11:51:33.744Z,11.55
2018-11-04T11:52:33.812Z,11.54
2018-11-04T11:53:33.730Z,11.54
2018-11-04T11:54:33.726Z,11.60
2018-11-04T11:55:33.718Z,11.72
2018-11-04T11:56:33.712Z,11.66
2018-11-04T11:57:33.706Z,11.50
2018-11-04T11:58:33.704Z,11.65
2018-11-04T11:59:33.700Z,11.63
2018-11-04T12:00:33.690Z,11.68
2018-11-04T12:01:35.240Z,11.59
2018-11-04T12:02:33.683Z,11.69
2018-11-04T12:03:33.678Z,11.75
2018-11-04T12:04:33.673Z,11.80
2018-11-04T12:05:33.666Z,11.75
2018-11-04T12:06:33.663Z,11.77
2018-11-04T12:07:33.663Z,11.73
2018-11-04T12:08:33.651Z,11.63
2018-11-04T12:09:33.653Z,11.77
2018-11-04T12:10:33.645Z,11.70
2018-11-04T12:11:33.642Z,11.75
2018-11-04T12:12:33.633Z,11.66
2018-11-04T12:13:33.626Z,11.73
2018-11-04T12:14:33.621Z,11.65
2018-11-04T12:15:33.623Z,11.62
2018-11-04T12:16:33.622Z,11.65
2018-11-04T12:17:33.636Z,11.68
2018-11-04T12:18:33.606Z,11.86
2018-11-04T12:19:33.714Z,11.69
2018-11-04T12:20:33.589Z,11.86
2018-11-04T12:21:33.581Z,11.78
2018-11-04T12:22:33.582Z,11.83
2018-11-04T12:23:33.592Z,11.78
2018-11-04T12:24:33.570Z,11.80
2018-11-04T12:25:33.564Z,11.75
2018-11-04T12:26:33.558Z,11.70
2018-11-04T12:27:34.256Z,11.73
2018-11-04T12:28:33.547Z,11.81
2018-11-04T12:29:33.544Z,11.72
2018-11-04T12:30:33.537Z,11.69
2018-11-04T12:31:33.532Z,11.75
2018-11-04T12:32:33.528Z,11.70
2018-11-04T12:33:33.520Z,11.86
2018-11-04T12:34:33.524Z,11.81
2018-11-04T12:35:33.511Z,11.78
2018-11-04T12:36:33.510Z,11.78
2018-11-04T12:37:33.500Z,11.84
2018-11-04T12:38:33.498Z,11.86
2018-11-04T12:39:34.179Z,11.78
2018-11-04T12:40:33.484Z,11.87
2018-11-04T12:41:33.481Z,11.84
2018-11-04T12:42:33.476Z,11.83
2018-11-04T12:43:33.476Z,11.70
2018-11-04T12:44:33.465Z,11.75
2018-11-04T12:45:34.213Z,11.75
2018-11-04T12:46:33.457Z,11.68
2018-11-04T12:47:33.450Z,11.73
2018-11-04T12:48:33.447Z,11.69
2018-11-04T12:49:33.438Z,11.75
2018-11-04T12:50:33.433Z,11.81
2018-11-04T12:51:33.428Z,11.87
2018-11-04T12:52:33.425Z,11.84
2018-11-04T12:53:33.415Z,11.86
2018-11-04T12:54:33.417Z,11.69
2018-11-04T12:55:33.412Z,11.80
2018-11-04T12:56:33.441Z,11.86
2018-11-04T12:57:33.400Z,11.78
2018-11-04T12:58:33.390Z,11.69
2018-11-04T12:59:33.390Z,11.70
2018-11-04T13:00:33.384Z,11.87
2018-11-04T13:01:33.379Z,11.78
2018-11-04T13:02:33.373Z,11.86
2018-11-04T13:03:33.371Z,11.86
2018-11-04T13:04:33.359Z,11.94
2018-11-04T13:05:33.356Z,11.87
2018-11-04T13:06:33.354Z,11.87
2018-11-04T13:07:34.187Z,11.87
2018-11-04T13:08:33.349Z,11.95